San Pedro, Colorado
Current Conditions -  °F | °C
As of 12:50 AM on Friday 24 Oct 2014 (Local Time) from KVTP Reporting Station
Clear Clear  
Wind Chill: 38°   Ceiling: Unl
Heat Index: 45°   Visibility: 10mi
Dew Point: 28°   Wind: 15mph
Humidity: 53%   Direction: 190°S
Pressure: 30.44"   Gusts: 25mph
Location:  37.1568°N, 105.289°W
Report Text: KVTP 240650Z AUTO 19013G22KT 170V240 10SM CLR 07/M02 A3044 RMK AO2
Loading
Personal Weather Stations






























Interactive Weather Map
Tropical Storm Tracking
New forecast layout! Learn more

10-Day Weather Forecast

Advertisements
Track Severe Weather on mobile